Time;durP1;ratioP1;P1;durP2;ratioP2;P2;SDS_P1;SDS_P2;PMS_P1;PMS_P2;Temp;Humidity;BMP_temperature;BMP_pressure;BME280_temperature;BME280_humidity;BME280_pressure;Samples;Min_cycle;Max_cycle;Signal;HPM_P1;HPM_P2
2022/10/30 00:01:29;;;;;;;19.77;10.83;;;13.10;99.90;;;;;;5041587;28;20140;-70
2022/10/30 00:03:55;;;;;;;24.00;10.63;;;13.20;99.90;;;;;;5024761;28;20037;-70
2022/10/30 00:06:20;;;;;;;21.00;10.00;;;13.20;99.90;;;;;;5024090;28;20060;-70
2022/10/30 00:08:46;;;;;;;20.77;10.83;;;13.20;99.90;;;;;;5025809;28;20491;-70
2022/10/30 00:11:12;;;;;;;18.57;9.67;;;13.20;99.90;;;;;;5026067;28;20045;-70
2022/10/30 00:13:38;;;;;;;21.80;9.73;;;13.20;99.90;;;;;;5042385;28;20112;-70
2022/10/30 00:16:06;;;;;;;20.80;10.70;;;13.20;99.90;;;;;;5039019;28;20303;-70
2022/10/30 00:18:38;;;;;;;19.00;9.73;;;13.20;99.90;;;;;;5041688;28;20083;-70
2022/10/30 00:21:10;;;;;;;17.73;9.60;;;13.10;99.90;;;;;;5027044;28;20397;-70
2022/10/30 00:23:36;;;;;;;21.43;10.17;;;13.10;99.90;;;;;;5041861;28;20283;-70
2022/10/30 00:26:06;;;;;;;22.43;10.27;;;13.10;99.90;;;;;;5030541;28;20288;-70
2022/10/30 00:28:32;;;;;;;22.80;10.03;;;13.10;99.90;;;;;;5021359;28;20129;-70
2022/10/30 00:30:59;;;;;;;17.23;9.87;;;13.10;99.90;;;;;;5027011;28;20372;-70
2022/10/30 00:33:25;;;;;;;17.37;9.80;;;13.10;99.90;;;;;;5019520;28;20368;-70
2022/10/30 00:35:50;;;;;;;23.43;10.93;;;13.20;99.90;;;;;;5021647;28;20295;-70
2022/10/30 00:38:16;;;;;;;22.97;10.00;;;13.20;99.90;;;;;;5039333;28;20045;-70
2022/10/30 00:40:42;;;;;;;22.80;10.53;;;13.30;99.90;;;;;;5043339;28;20583;-70
2022/10/30 00:43:29;;;;;;;18.43;10.50;;;13.30;99.90;;;;;;5019404;28;20052;-70
2022/10/30 00:45:59;;;;;;;21.73;10.93;;;13.40;99.90;;;;;;5038198;28;20507;-70
2022/10/30 00:48:25;;;;;;;21.53;10.50;;;13.40;99.90;;;;;;5024224;28;20287;-70
2022/10/30 00:50:52;;;;;;;26.63;11.10;;;13.50;99.90;;;;;;5025967;28;20337;-70
2022/10/30 00:53:20;;;;;;;22.83;11.27;;;13.50;99.90;;;;;;5021882;28;20048;-70
2022/10/30 00:55:51;;;;;;;21.27;10.00;;;13.50;99.90;;;;;;5046066;28;20378;-70
2022/10/30 00:58:22;;;;;;;17.77;9.70;;;13.60;99.90;;;;;;5038929;28;20299;-70
2022/10/30 01:00:52;;;;;;;18.87;10.07;;;13.60;99.90;;;;;;5038904;28;20310;-70
2022/10/30 01:03:20;;;;;;;17.00;9.87;;;13.60;99.90;;;;;;5050775;28;20362;-70
2022/10/30 01:05:51;;;;;;;18.10;9.90;;;13.60;99.90;;;;;;5028743;28;20325;-70
2022/10/30 01:08:17;;;;;;;17.73;9.50;;;13.50;99.90;;;;;;5025373;28;20371;-70
2022/10/30 01:10:43;;;;;;;22.23;9.83;;;13.50;99.90;;;;;;5034461;28;20295;-70
2022/10/30 01:13:10;;;;;;;21.33;10.43;;;13.50;99.90;;;;;;5015933;28;20299;-70
2022/10/30 01:15:41;;;;;;;16.00;8.90;;;13.50;99.90;;;;;;5010938;28;20317;-70
2022/10/30 01:18:19;;;;;;;19.43;9.67;;;13.40;99.90;;;;;;5045516;28;20635;-70
2022/10/30 01:21:19;;;;;;;21.20;10.47;;;13.40;99.90;;;;;;5031153;28;20846;-70
2022/10/30 01:24:11;;;;;;;19.90;9.87;;;13.40;99.90;;;;;;5057937;28;20279;-70
2022/10/30 01:27:07;;;;;;;22.03;9.73;;;13.30;99.90;;;;;;5018949;28;20333;-70
2022/10/30 01:30:02;;;;;;;15.90;9.93;;;13.20;99.90;;;;;;5024109;28;20299;-70
2022/10/30 01:33:18;;;;;;;20.57;10.10;;;13.20;99.90;;;;;;5024781;28;20290;-70
2022/10/30 01:35:49;;;;;;;21.37;11.20;;;13.20;99.90;;;;;;4944921;28;20282;-70
2022/10/30 01:38:38;;;;;;;17.77;9.90;;;13.10;99.90;;;;;;4953642;28;20852;-70
2022/10/30 01:41:04;;;;;;;22.13;10.87;;;13.10;99.90;;;;;;5010521;28;21110;-70
2022/10/30 01:43:31;;;;;;;18.33;10.23;;;13.00;99.90;;;;;;5041514;28;20288;-70
2022/10/30 01:46:19;;;;;;;17.57;10.43;;;13.00;99.90;;;;;;5045061;28;20741;-70
2022/10/30 01:49:10;;;;;;;17.03;10.03;;;13.00;99.90;;;;;;5040777;28;20798;-70
2022/10/30 01:51:53;;;;;;;22.33;11.13;;;12.90;99.90;;;;;;5013670;28;20295;-70
2022/10/30 01:54:48;;;;;;;22.60;10.80;;;12.90;99.90;;;;;;5026582;28;20689;-70
2022/10/30 01:57:34;;;;;;;19.97;10.53;;;12.80;99.90;;;;;;4960454;28;20832;-70
2022/10/30 02:00:07;;;;;;;;;;;12.80;99.90;;;;;;5045824;28;20751;-70
2022/10/30 02:02:33;;;;;;;20.93;10.13;;;12.70;99.90;;;;;;5042456;28;20356;-70
2022/10/30 02:05:00;;;;;;;18.07;10.57;;;12.60;99.90;;;;;;5027375;28;20341;-70
2022/10/30 02:07:26;;;;;;;20.33;10.57;;;12.60;99.90;;;;;;5042637;28;20363;-70
2022/10/30 02:09:53;;;;;;;19.70;10.53;;;12.60;99.90;;;;;;5024635;28;20996;-70
2022/10/30 02:12:20;;;;;;;23.70;10.90;;;12.60;99.90;;;;;;5033823;28;20029;-70
2022/10/30 02:14:51;;;;;;;22.67;10.60;;;12.60;99.90;;;;;;5044885;28;20286;-70
2022/10/30 02:17:18;;;;;;;22.57;10.73;;;12.60;99.90;;;;;;5026603;28;20327;-70
2022/10/30 02:19:43;;;;;;;18.73;10.40;;;12.60;99.90;;;;;;5034627;28;20316;-70
2022/10/30 02:22:09;;;;;;;20.67;10.67;;;12.60;99.90;;;;;;5033714;28;20289;-70
2022/10/30 02:24:35;;;;;;;21.13;11.03;;;12.60;99.90;;;;;;5043755;28;20044;-70
2022/10/30 02:27:01;;;;;;;23.17;11.33;;;12.60;99.90;;;;;;5017659;28;20492;-70
2022/10/30 02:29:27;;;;;;;23.03;10.83;;;12.60;99.90;;;;;;5028446;28;20041;-70
2022/10/30 02:31:52;;;;;;;26.43;10.73;;;12.70;99.90;;;;;;5031930;28;20120;-70
2022/10/30 02:34:19;;;;;;;18.47;10.93;;;12.70;99.90;;;;;;5036577;28;20387;-70
2022/10/30 02:36:44;;;;;;;24.23;10.23;;;12.70;99.90;;;;;;5041516;28;20587;-70
2022/10/30 02:39:10;;;;;;;18.90;10.83;;;12.70;99.90;;;;;;5011319;28;20287;-70
2022/10/30 02:41:36;;;;;;;16.33;9.67;;;12.70;99.90;;;;;;5040371;28;20119;-70
2022/10/30 02:44:02;;;;;;;23.93;11.00;;;12.70;99.90;;;;;;5020466;28;20040;-70
2022/10/30 02:46:28;;;;;;;21.70;10.43;;;12.70;99.90;;;;;;5044137;28;20037;-70
2022/10/30 02:48:54;;;;;;;19.10;9.80;;;12.70;99.90;;;;;;5043906;28;20651;-70
2022/10/30 02:51:20;;;;;;;21.53;11.13;;;12.70;99.90;;;;;;5025199;28;20045;-70
2022/10/30 02:53:46;;;;;;;24.37;10.50;;;12.70;99.90;;;;;;5040885;28;20128;-70
2022/10/30 02:56:13;;;;;;;21.20;11.00;;;12.60;99.90;;;;;;5008097;28;20038;-70
2022/10/30 02:58:40;;;;;;;19.63;10.33;;;12.60;99.90;;;;;;5018934;28;21002;-70
2022/10/30 03:01:11;;;;;;;18.90;10.97;;;12.60;99.90;;;;;;5041184;28;20310;-70
2022/10/30 03:03:38;;;;;;;20.93;10.93;;;12.60;99.90;;;;;;5040631;28;20295;-70
2022/10/30 03:06:05;;;;;;;22.03;10.47;;;12.60;99.90;;;;;;5196141;23;20323;-69
2022/10/30 03:08:31;;;;;;;27.60;11.17;;;12.60;99.90;;;;;;4989692;28;20303;-69
2022/10/30 03:11:05;;;;;;;22.20;10.70;;;12.60;99.90;;;;;;5002283;28;20355;-70
2022/10/30 03:13:33;;;;;;;23.57;10.37;;;12.50;99.90;;;;;;4986109;28;20284;-70
2022/10/30 03:16:05;;;;;;;18.73;10.57;;;12.50;99.90;;;;;;4998773;28;20771;-70
2022/10/30 03:18:31;;;;;;;22.33;10.27;;;12.50;99.90;;;;;;4996461;28;20283;-70
2022/10/30 03:20:59;;;;;;;18.93;10.47;;;12.40;99.90;;;;;;4987986;28;20756;-70
2022/10/30 03:23:26;;;;;;;23.27;10.30;;;12.40;99.90;;;;;;4975617;28;20326;-70
2022/10/30 03:25:54;;;;;;;21.17;10.80;;;12.40;99.90;;;;;;5003488;28;20685;-70
2022/10/30 03:28:23;;;;;;;23.93;11.40;;;12.40;99.90;;;;;;4986304;28;20277;-70
2022/10/30 03:30:50;;;;;;;26.30;11.33;;;12.40;99.90;;;;;;4984345;28;20723;-70
2022/10/30 03:33:16;;;;;;;23.30;10.43;;;12.40;99.90;;;;;;5002086;28;20741;-70
2022/10/30 03:35:45;;;;;;;25.80;11.80;;;12.40;99.90;;;;;;4976800;28;20297;-70
2022/10/30 03:38:12;;;;;;;20.80;10.27;;;12.40;99.90;;;;;;4977479;28;20307;-70
2022/10/30 03:40:38;;;;;;;20.60;10.57;;;12.40;99.90;;;;;;4980361;28;20521;-70
2022/10/30 03:43:03;;;;;;;24.17;10.67;;;12.30;99.90;;;;;;5003378;28;20289;-70
2022/10/30 03:45:32;;;;;;;21.57;11.37;;;12.30;99.90;;;;;;5003539;28;20291;-70
2022/10/30 03:48:02;;;;;;;21.47;11.23;;;12.30;99.90;;;;;;4996278;28;20052;-70
2022/10/30 03:50:27;;;;;;;20.50;10.87;;;12.20;99.90;;;;;;4965847;28;20524;-70
2022/10/30 03:52:54;;;;;;;22.03;11.37;;;12.20;99.90;;;;;;5003737;28;20630;-70
2022/10/30 03:55:20;;;;;;;20.77;11.37;;;12.20;99.90;;;;;;4997419;28;20053;-70
2022/10/30 03:57:46;;;;;;;22.87;12.57;;;12.20;99.90;;;;;;5003348;28;20384;-70
2022/10/30 04:00:12;;;;;;;22.67;12.00;;;12.20;99.90;;;;;;5005619;28;20157;-70
2022/10/30 04:02:38;;;;;;;24.50;11.60;;;12.20;99.90;;;;;;4986344;28;20044;-70
2022/10/30 04:05:04;;;;;;;19.97;11.20;;;12.20;99.90;;;;;;4996979;28;20293;-70
2022/10/30 04:07:30;;;;;;;20.20;11.40;;;12.20;99.90;;;;;;4960696;28;20108;-70
2022/10/30 04:09:55;;;;;;;20.13;11.33;;;12.20;99.90;;;;;;4970506;28;20281;-70
2022/10/30 04:12:21;;;;;;;22.20;11.60;;;12.20;99.90;;;;;;4982502;28;20155;-70
2022/10/30 04:14:47;;;;;;;27.07;12.33;;;12.20;99.90;;;;;;4978476;28;20476;-70
2022/10/30 04:17:13;;;;;;;25.57;11.83;;;12.20;99.90;;;;;;5001870;28;20080;-70
2022/10/30 04:19:38;;;;;;;29.77;12.30;;;12.20;99.90;;;;;;4964102;28;20482;-70
2022/10/30 04:22:04;;;;;;;22.10;11.60;;;12.30;99.90;;;;;;4970031;28;20048;-70
2022/10/30 04:24:30;;;;;;;26.50;12.90;;;12.30;99.90;;;;;;5001869;28;20096;-70
2022/10/30 04:26:55;;;;;;;29.93;12.37;;;12.30;99.90;;;;;;4986471;28;20054;-70
2022/10/30 04:29:21;;;;;;;22.30;12.40;;;12.30;99.90;;;;;;4991464;28;20148;-70
2022/10/30 04:31:47;;;;;;;23.03;11.07;;;12.20;99.90;;;;;;5016947;28;20050;-70
2022/10/30 04:34:12;;;;;;;20.33;12.47;;;12.30;99.90;;;;;;4968871;28;20048;-70
2022/10/30 04:36:38;;;;;;;24.13;12.27;;;12.20;99.90;;;;;;4974421;28;20041;-70
2022/10/30 04:39:04;;;;;;;24.57;11.93;;;12.20;99.90;;;;;;4991271;28;20053;-70
2022/10/30 04:41:30;;;;;;;19.07;11.80;;;12.20;99.90;;;;;;4988094;28;20137;-70
2022/10/30 04:43:55;;;;;;;23.73;11.70;;;12.10;99.90;;;;;;4970741;28;20108;-70
2022/10/30 04:48:57;;;;;;;21.97;11.83;;;12.10;99.90;;;;;;5060806;23;20083;-70
2022/10/30 04:51:23;;;;;;;22.47;11.53;;;12.00;99.90;;;;;;5046256;28;20786;-70
2022/10/30 04:53:49;;;;;;;21.73;12.07;;;12.00;99.90;;;;;;5022655;28;20323;-71
2022/10/30 04:56:15;;;;;;;26.17;12.07;;;12.00;99.90;;;;;;5044769;28;20037;-71
2022/10/30 04:58:41;;;;;;;20.93;11.07;;;11.90;99.90;;;;;;5026873;28;20047;-71
2022/10/30 05:01:07;;;;;;;25.60;11.77;;;11.90;99.90;;;;;;5025892;28;20717;-71
2022/10/30 05:03:33;;;;;;;23.97;11.60;;;11.90;99.90;;;;;;5017084;28;20874;-71
2022/10/30 05:06:21;;;;;;;23.40;11.63;;;11.80;99.90;;;;;;5004733;28;20323;-71
2022/10/30 05:08:47;;;;;;;24.37;11.93;;;11.80;99.90;;;;;;5042687;28;20114;-71
2022/10/30 05:11:13;;;;;;;29.23;12.13;;;11.80;99.90;;;;;;5026199;28;20841;-71
2022/10/30 05:13:38;;;;;;;24.87;11.80;;;11.70;99.90;;;;;;4994823;28;20292;-71
2022/10/30 05:16:04;;;;;;;22.00;12.63;;;11.70;99.90;;;;;;5027581;28;20380;-71
2022/10/30 05:18:30;;;;;;;24.00;13.10;;;11.70;99.90;;;;;;5018750;28;20124;-71
2022/10/30 05:20:56;;;;;;;18.93;12.43;;;11.60;99.90;;;;;;5024642;28;20837;-71
2022/10/30 05:23:21;;;;;;;23.93;13.43;;;11.60;99.90;;;;;;5025296;28;20049;-71
2022/10/30 05:25:47;;;;;;;22.00;13.63;;;11.60;99.90;;;;;;5013009;28;20112;-71
2022/10/30 05:28:13;;;;;;;22.77;12.67;;;11.60;99.90;;;;;;5020310;28;20374;-72
2022/10/30 05:30:38;;;;;;;27.30;13.47;;;11.60;99.90;;;;;;5023683;28;20042;-71
2022/10/30 05:33:08;;;;;;;25.23;13.30;;;11.60;99.90;;;;;;5018573;28;20131;-71
2022/10/30 05:35:35;;;;;;;26.40;14.90;;;11.70;99.90;;;;;;5020642;28;20076;-71
2022/10/30 05:38:02;;;;;;;25.70;14.17;;;11.70;99.90;;;;;;5022446;28;20666;-71
2022/10/30 05:40:28;;;;;;;24.90;13.77;;;11.70;99.90;;;;;;5020623;28;20299;-71
2022/10/30 05:42:54;;;;;;;31.13;13.63;;;11.70;99.90;;;;;;5006166;28;20813;-71
2022/10/30 05:45:20;;;;;;;26.50;13.23;;;11.70;99.90;;;;;;5018764;28;20037;-71
2022/10/30 05:47:57;;;;;;;25.07;13.77;;;11.70;99.90;;;;;;5012315;28;20164;-71
2022/10/30 05:50:23;;;;;;;29.37;14.20;;;11.70;99.90;;;;;;5014596;28;20717;-72
2022/10/30 05:52:53;;;;;;;30.27;14.57;;;11.70;99.90;;;;;;5018110;28;20589;-71
2022/10/30 05:55:19;;;;;;;24.77;13.70;;;11.70;99.90;;;;;;5021705;28;20375;-71
2022/10/30 05:57:44;;;;;;;26.13;12.93;;;11.60;99.90;;;;;;5004662;28;20303;-71
2022/10/30 06:00:11;;;;;;;26.43;13.90;;;11.60;99.90;;;;;;5024612;28;20044;-71
2022/10/30 06:02:36;;;;;;;26.63;13.83;;;11.50;99.90;;;;;;5036325;28;20053;-71
2022/10/30 06:05:02;;;;;;;23.73;13.50;;;11.50;99.90;;;;;;5024540;28;20280;-71
2022/10/30 06:07:28;;;;;;;29.30;13.30;;;11.50;99.90;;;;;;5036198;28;20571;-71
2022/10/30 06:09:54;;;;;;;27.60;13.50;;;11.50;99.90;;;;;;5026706;28;20120;-71
2022/10/30 06:12:19;;;;;;;24.30;13.77;;;11.40;99.90;;;;;;5023889;28;20040;-71
2022/10/30 06:14:45;;;;;;;24.43;14.30;;;11.40;99.90;;;;;;5015170;28;20044;-71
2022/10/30 06:17:11;;;;;;;23.50;12.47;;;11.30;99.90;;;;;;5006322;28;20041;-71
2022/10/30 06:19:36;;;;;;;31.37;14.07;;;11.30;99.90;;;;;;5009551;28;20094;-71
2022/10/30 06:22:02;;;;;;;34.07;14.60;;;11.20;99.90;;;;;;5013398;28;20152;-71
2022/10/30 06:24:28;;;;;;;28.93;14.10;;;11.20;99.90;;;;;;5046533;28;20431;-71
2022/10/30 06:26:53;;;;;;;29.00;14.83;;;11.20;99.90;;;;;;5009395;28;20034;-71
2022/10/30 06:29:19;;;;;;;24.47;14.87;;;11.20;99.90;;;;;;5020981;28;20037;-71
2022/10/30 06:31:45;;;;;;;35.67;16.23;;;11.20;99.90;;;;;;5033325;28;20068;-71
2022/10/30 06:34:11;;;;;;;23.73;14.23;;;11.20;99.90;;;;;;5029286;28;20044;-71
2022/10/30 06:36:36;;;;;;;27.50;14.60;;;11.20;99.90;;;;;;5017687;28;20544;-71
2022/10/30 06:39:02;;;;;;;26.83;14.17;;;11.20;99.90;;;;;;5031225;28;20075;-71
2022/10/30 06:41:28;;;;;;;33.33;15.77;;;11.20;99.90;;;;;;5036420;28;20038;-71
2022/10/30 06:43:53;;;;;;;29.63;14.97;;;11.20;99.90;;;;;;5040808;28;20044;-71
2022/10/30 06:46:19;;;;;;;30.87;15.13;;;11.20;99.90;;;;;;5009763;28;20044;-71
2022/10/30 06:48:45;;;;;;;29.87;15.53;;;11.20;99.90;;;;;;5056577;28;20074;-71
2022/10/30 06:51:14;;;;;;;27.90;15.23;;;11.20;99.90;;;;;;5028208;28;20490;-71
2022/10/30 06:53:40;;;;;;;28.47;15.13;;;11.30;99.90;;;;;;5038392;28;20045;-71
2022/10/30 06:56:06;;;;;;;27.27;14.77;;;11.30;99.90;;;;;;5017945;28;20283;-71
2022/10/30 06:58:37;;;;;;;30.50;14.80;;;11.30;99.90;;;;;;5031289;28;20411;-71
2022/10/30 07:01:04;;;;;;;27.30;15.70;;;11.30;99.90;;;;;;5006808;28;20295;-71
2022/10/30 07:03:31;;;;;;;31.73;15.80;;;11.30;99.90;;;;;;5020334;28;20730;-71
2022/10/30 07:05:56;;;;;;;28.27;16.53;;;11.30;99.90;;;;;;5019790;28;20342;-71
2022/10/30 07:08:23;;;;;;;25.53;15.03;;;11.40;99.90;;;;;;5042912;28;20789;-71
2022/10/30 07:10:49;;;;;;;28.20;14.43;;;11.40;99.90;;;;;;5011552;28;20095;-72
2022/10/30 07:13:15;;;;;;;32.13;15.53;;;11.40;99.90;;;;;;5199501;23;20327;-69
2022/10/30 07:15:41;;;;;;;28.23;15.77;;;11.40;99.90;;;;;;5057488;28;20295;-69
2022/10/30 07:18:09;;;;;;;31.10;15.10;;;11.50;99.90;;;;;;5045953;28;20737;-70
2022/10/30 07:20:35;;;;;;;34.07;16.73;;;11.50;99.90;;;;;;5027285;28;20063;-70
2022/10/30 07:23:02;;;;;;;25.53;14.80;;;11.50;99.90;;;;;;5049988;28;20295;-70
2022/10/30 07:25:28;;;;;;;27.37;15.43;;;11.50;99.90;;;;;;5050616;28;20320;-70
2022/10/30 07:27:55;;;;;;;30.40;15.07;;;11.60;99.90;;;;;;5042247;28;20700;-70
2022/10/30 07:30:23;;;;;;;33.23;15.97;;;11.60;99.90;;;;;;5043616;28;20286;-70
2022/10/30 07:33:04;;;;;;;31.03;15.33;;;11.70;99.90;;;;;;5017877;28;20379;-70
2022/10/30 07:35:31;;;;;;;30.90;15.37;;;11.70;99.90;;;;;;5045078;28;20770;-70
2022/10/30 07:38:04;;;;;;;31.10;15.83;;;11.80;99.90;;;;;;5028644;28;20722;-70
2022/10/30 07:40:29;;;;;;;26.33;15.60;;;11.80;99.90;;;;;;5041587;28;20788;-70
2022/10/30 07:42:56;;;;;;;29.47;15.53;;;11.90;99.90;;;;;;5043135;28;20378;-70
2022/10/30 07:45:22;;;;;;;30.37;15.33;;;12.00;99.90;;;;;;5033375;28;20040;-70
2022/10/30 07:47:48;;;;;;;31.63;15.50;;;12.00;99.90;;;;;;5021235;28;20284;-70
2022/10/30 07:50:14;;;;;;;30.27;15.20;;;12.10;99.90;;;;;;5029287;28;20667;-70
2022/10/30 07:52:40;;;;;;;27.93;15.50;;;12.10;99.90;;;;;;5033471;28;20040;-70
2022/10/30 07:55:06;;;;;;;31.57;14.93;;;12.20;99.90;;;;;;5028335;28;20128;-70
2022/10/30 07:57:36;;;;;;;25.93;15.47;;;12.20;99.90;;;;;;5011070;28;20045;-70
2022/10/30 08:00:04;;;;;;;26.77;15.13;;;12.30;99.90;;;;;;5043405;28;20300;-70
2022/10/30 08:02:30;;;;;;;25.67;15.93;;;12.30;99.90;;;;;;5042989;28;20283;-70
2022/10/30 08:04:56;;;;;;;27.90;14.87;;;12.40;99.90;;;;;;5029279;28;20389;-70
2022/10/30 08:07:22;;;;;;;24.47;14.27;;;12.40;99.90;;;;;;5028759;28;20120;-70
2022/10/30 08:09:48;;;;;;;25.03;14.40;;;12.50;99.90;;;;;;5031183;28;20041;-70
2022/10/30 08:12:14;;;;;;;28.00;14.37;;;12.60;99.90;;;;;;5029790;28;20056;-69
2022/10/30 08:14:40;;;;;;;25.87;14.83;;;12.60;99.90;;;;;;5059543;28;20827;-69
2022/10/30 08:17:09;;;;;;;28.57;15.70;;;12.70;99.90;;;;;;5042253;28;20282;-70
2022/10/30 08:19:35;;;;;;;25.03;14.30;;;12.80;99.90;;;;;;5028979;28;20336;-70
2022/10/30 08:22:01;;;;;;;30.67;14.37;;;12.80;99.90;;;;;;5044983;28;20314;-69
2022/10/30 08:24:26;;;;;;;28.13;15.80;;;12.90;99.90;;;;;;5074609;28;21110;-69
2022/10/30 08:26:52;;;;;;;28.27;14.57;;;12.90;99.90;;;;;;5045472;28;20044;-70
2022/10/30 08:29:18;;;;;;;26.67;13.90;;;13.00;99.90;;;;;;5077794;28;20511;-70
2022/10/30 08:31:47;;;;;;;27.80;14.57;;;13.10;99.90;;;;;;5050496;28;20410;-70
2022/10/30 08:34:13;;;;;;;28.93;15.30;;;13.20;99.90;;;;;;5067583;28;20056;-70
2022/10/30 08:36:38;;;;;;;27.73;14.43;;;13.30;99.90;;;;;;5036597;28;20343;-70
2022/10/30 08:39:04;;;;;;;29.03;13.70;;;13.30;99.90;;;;;;5077333;28;20488;-70
2022/10/30 08:41:30;;;;;;;27.67;14.23;;;13.50;99.90;;;;;;5033501;28;20084;-70
2022/10/30 08:43:56;;;;;;;28.23;14.73;;;13.60;99.90;;;;;;5046746;28;20141;-70
2022/10/30 08:46:21;;;;;;;27.83;14.87;;;13.70;99.90;;;;;;5040818;28;20085;-70
2022/10/30 08:51:19;;;;;;;26.50;14.87;;;13.90;99.90;;;;;;4997897;28;20054;-71
2022/10/30 08:53:48;;;;;;;27.80;14.27;;;14.00;99.90;;;;;;5014432;28;20842;-71
2022/10/30 08:56:15;;;;;;;27.50;14.57;;;14.10;99.90;;;;;;4974896;28;20042;-71
2022/10/30 08:58:40;;;;;;;27.33;14.53;;;14.30;99.90;;;;;;4965603;28;20273;-71
2022/10/30 09:01:06;;;;;;;26.37;13.83;;;14.40;99.90;;;;;;4954884;28;20676;-71
2022/10/30 09:03:32;;;;;;;22.77;13.80;;;14.50;99.90;;;;;;4960709;28;20085;-71
2022/10/30 09:05:58;;;;;;;26.97;13.93;;;14.60;99.90;;;;;;4975380;28;20357;-71
2022/10/30 09:08:24;;;;;;;25.23;14.93;;;14.70;99.90;;;;;;4986848;28;20054;-71
2022/10/30 09:10:55;;;;;;;24.27;12.97;;;14.80;99.90;;;;;;4975301;28;20676;-71
2022/10/30 09:13:21;;;;;;;26.23;12.87;;;14.90;99.90;;;;;;4959930;28;20421;-71
2022/10/30 09:15:46;;;;;;;24.83;13.47;;;15.00;99.90;;;;;;4996689;28;20295;-71
2022/10/30 09:18:12;;;;;;;27.73;14.57;;;15.00;99.90;;;;;;4987100;28;20453;-71
2022/10/30 09:20:38;;;;;;;28.30;14.17;;;15.10;99.90;;;;;;4987526;28;20589;-71
2022/10/30 09:23:04;;;;;;;23.47;13.53;;;15.20;99.90;;;;;;4992837;28;20054;-71
2022/10/30 09:25:29;;;;;;;26.03;14.07;;;15.20;99.90;;;;;;4989442;28;20042;-71
2022/10/30 09:27:55;;;;;;;23.83;13.30;;;15.30;99.90;;;;;;4986881;28;20049;-71
2022/10/30 09:30:21;;;;;;;23.57;12.27;;;15.40;99.90;;;;;;5003150;28;20124;-71
2022/10/30 09:32:54;;;;;;;18.37;12.03;;;15.50;99.90;;;;;;4952302;28;20046;-71
2022/10/30 09:35:19;;;;;;;25.97;13.60;;;15.60;99.90;;;;;;4974031;28;20184;-71
2022/10/30 09:37:45;;;;;;;22.97;13.70;;;15.60;99.90;;;;;;4974043;28;20283;-71
2022/10/30 09:40:28;;;;;;;30.07;14.07;;;15.70;99.90;;;;;;4986901;28;20326;-71
2022/10/30 09:43:02;;;;;;;26.17;12.97;;;15.70;99.90;;;;;;4990124;28;20046;-71
2022/10/30 09:45:46;;;;;;;27.37;13.23;;;15.80;99.90;;;;;;4970896;28;20809;-71
2022/10/30 09:48:47;;;;;;;27.43;12.50;;;15.90;99.90;;;;;;4983354;28;20848;-71
2022/10/30 09:51:46;;;;;;;21.80;12.93;;;16.00;99.90;;;;;;4970045;28;20321;-71
2022/10/30 09:54:45;;;;;;;23.90;13.30;;;16.10;99.90;;;;;;4990968;28;20772;-71
2022/10/30 09:57:14;;;;;;;23.70;12.30;;;16.20;99.90;;;;;;4997562;28;20287;-71
2022/10/30 09:59:45;;;;;;;19.53;12.13;;;16.30;99.90;;;;;;4970192;28;20286;-71
2022/10/30 10:02:27;;;;;;;21.40;11.93;;;16.40;99.90;;;;;;4980846;28;20290;-71
2022/10/30 10:05:02;;;;;;;24.70;12.80;;;16.50;99.90;;;;;;4984277;28;20727;-71
2022/10/30 10:07:50;;;;;;;28.20;12.27;;;16.50;99.90;;;;;;4988047;28;20632;-71
2022/10/30 10:10:40;;;;;;;21.13;12.37;;;16.60;99.90;;;;;;4969960;28;20284;-71
2022/10/30 10:13:29;;;;;;;20.20;12.37;;;16.70;99.90;;;;;;4986255;28;20293;-70
2022/10/30 10:16:13;;;;;;;23.50;11.73;;;16.80;99.90;;;;;;4994850;28;20289;-70
2022/10/30 10:18:45;;;;;;;22.10;11.37;;;16.90;99.90;;;;;;4979228;28;20301;-70
2022/10/30 10:21:24;;;;;;;19.73;11.07;;;17.00;99.90;;;;;;4965303;28;20871;-70
2022/10/30 10:23:55;;;;;;;19.47;11.83;;;17.00;99.90;;;;;;4983098;28;20285;-70
2022/10/30 10:26:55;;;;;;;24.73;11.83;;;17.10;99.90;;;;;;4968860;28;20281;-70
2022/10/30 10:29:39;;;;;;;23.43;12.07;;;17.20;99.90;;;;;;4983897;28;20339;-70
2022/10/30 10:32:27;;;;;;;21.33;11.40;;;17.30;99.90;;;;;;4984999;28;20282;-70
2022/10/30 10:35:14;;;;;;;22.80;12.03;;;17.30;99.90;;;;;;4988058;28;20780;-70
2022/10/30 10:38:04;;;;;;;23.07;11.90;;;17.40;99.90;;;;;;4961911;28;20274;-70
2022/10/30 10:40:42;;;;;;;19.53;11.70;;;17.40;99.90;;;;;;4969886;28;20329;-70
2022/10/30 10:43:49;;;;;;;18.80;11.07;;;17.40;99.90;;;;;;4978879;28;20294;-70
2022/10/30 10:46:42;;;;;;;23.57;12.13;;;17.50;99.90;;;;;;4897128;29;20144;-70
2022/10/30 10:49:39;;;;;;;20.50;11.50;;;17.50;99.90;;;;;;4991784;28;20863;-70
2022/10/30 10:52:14;;;;;;;19.13;11.83;;;17.60;99.90;;;;;;4949470;28;20058;-70
2022/10/30 10:54:55;;;;;;;;;;;17.60;99.90;;;;;;4989616;28;20042;-70
2022/10/30 10:57:28;;;;;;;24.43;11.57;;;17.70;99.90;;;;;;4992894;28;19917;-70
2022/10/30 11:00:06;;;;;;;17.57;9.80;;;17.70;99.90;;;;;;4985496;28;20050;-70
2022/10/30 11:02:36;;;;;;;17.97;10.80;;;17.80;99.90;;;;;;4968093;28;20329;-70
2022/10/30 11:05:11;;;;;;;18.50;10.93;;;17.80;99.90;;;;;;4977798;28;20034;-70
2022/10/30 11:07:45;;;;;;;19.83;10.93;;;17.90;99.90;;;;;;4976180;28;20104;-70
2022/10/30 11:10:14;;;;;;;26.63;11.70;;;18.00;99.90;;;;;;4961651;28;20066;-70
2022/10/30 11:12:41;;;;;;;22.67;11.43;;;18.10;99.90;;;;;;4980375;28;20490;-70
2022/10/30 11:15:33;;;;;;;23.63;11.17;;;18.10;99.90;;;;;;4970067;28;20524;-70
2022/10/30 11:18:04;;;;;;;19.47;10.47;;;18.20;99.90;;;;;;4979940;28;20108;-71
2022/10/30 11:20:53;;;;;;;24.17;10.57;;;18.30;99.90;;;;;;4998946;28;20981;-70
2022/10/30 11:23:34;;;;;;;17.73;9.73;;;18.40;99.90;;;;;;4983277;28;20121;-70
2022/10/30 11:26:22;;;;;;;18.77;10.57;;;18.40;99.90;;;;;;4981207;28;20039;-70
2022/10/30 11:29:04;;;;;;;23.27;9.87;;;18.40;99.90;;;;;;4989462;28;20081;-72
2022/10/30 11:31:36;;;;;;;;;;;18.40;99.90;;;;;;4979710;28;20651;-72
2022/10/30 11:34:17;;;;;;;22.23;10.83;;;18.40;99.90;;;;;;4978115;28;19928;-71
2022/10/30 11:36:44;;;;;;;22.40;11.17;;;18.50;99.90;;;;;;4981363;28;20053;-71
2022/10/30 11:39:17;;;;;;;20.73;10.53;;;18.60;99.90;;;;;;4972979;28;20046;-71
2022/10/30 11:41:54;;;;;;;19.53;10.67;;;18.60;99.90;;;;;;4981517;28;20043;-71
2022/10/30 11:44:22;;;;;;;26.67;11.97;;;18.60;99.90;;;;;;4982245;28;20065;-72
2022/10/30 11:46:47;;;;;;;21.50;12.03;;;18.60;99.90;;;;;;4979162;28;20291;-71
2022/10/30 11:49:48;;;;;;;18.67;10.83;;;18.60;99.90;;;;;;4964675;28;20077;-71
2022/10/30 11:52:16;;;;;;;19.70;10.67;;;18.60;99.90;;;;;;4934181;28;20054;-71
2022/10/30 11:54:47;;;;;;;23.30;11.07;;;18.70;99.90;;;;;;4964592;28;20069;-71
2022/10/30 11:57:22;;;;;;;23.27;11.30;;;18.70;99.90;;;;;;4982128;28;20069;-71
2022/10/30 11:59:50;;;;;;;;;;;18.70;99.90;;;;;;4963189;28;20034;-71
2022/10/30 12:02:25;;;;;;;20.17;10.80;;;18.70;99.90;;;;;;4980152;28;19928;-71
2022/10/30 12:04:52;;;;;;;19.80;10.50;;;18.70;99.90;;;;;;4982636;28;20121;-71
2022/10/30 12:07:28;;;;;;;20.63;10.83;;;18.80;99.90;;;;;;4979332;28;20505;-72
2022/10/30 12:09:56;;;;;;;21.53;11.30;;;18.80;99.90;;;;;;4984850;28;20046;-72
2022/10/30 12:12:23;;;;;;;21.33;10.83;;;18.90;99.90;;;;;;4988755;28;20050;-72
2022/10/30 12:14:51;;;;;;;20.67;11.10;;;18.90;99.90;;;;;;4972007;28;20047;-72
2022/10/30 12:17:18;;;;;;;21.90;10.67;;;18.90;99.90;;;;;;4983807;28;20413;-72
2022/10/30 12:19:53;;;;;;;21.70;11.83;;;19.00;99.90;;;;;;4961677;28;20125;-72
2022/10/30 12:22:29;;;;;;;22.20;11.30;;;19.00;99.90;;;;;;4975736;28;20046;-72
2022/10/30 12:24:57;;;;;;;22.33;10.70;;;19.00;99.90;;;;;;4975170;28;20038;-72
2022/10/30 12:27:23;;;;;;;19.77;10.23;;;19.10;99.90;;;;;;4953885;28;20085;-73
2022/10/30 12:30:18;;;;;;;18.83;10.70;;;19.10;99.90;;;;;;4982087;28;20038;-72
2022/10/30 12:33:00;;;;;;;20.27;10.03;;;19.20;99.90;;;;;;4984237;28;20042;-72
2022/10/30 12:35:37;;;;;;;22.27;10.10;;;19.20;99.90;;;;;;4963916;28;20448;-72
2022/10/30 12:38:09;;;;;;;18.73;10.47;;;19.20;99.90;;;;;;4997423;28;20524;-72
2022/10/30 12:40:41;;;;;;;20.30;10.53;;;19.20;99.90;;;;;;4972244;28;20466;-72
2022/10/30 12:43:13;;;;;;;22.37;10.30;;;19.10;99.90;;;;;;4977200;28;20567;-72
2022/10/30 12:45:44;;;;;;;23.43;11.03;;;19.10;99.90;;;;;;4981690;28;20042;-72
2022/10/30 12:48:27;;;;;;;19.27;9.70;;;19.10;99.90;;;;;;4966633;28;20476;-71
2022/10/30 12:51:11;;;;;;;21.87;9.90;;;19.20;99.90;;;;;;4979213;28;20086;-71